LDRI/RJK METAR and TAF weather

Enter ICAO airport designator
Station Type Date Time Source
LDRI METAR 2021/05/10 00:30 UTC NOAA

LDRI 100030Z 00000KT CAVOK 12/08 Q1018


Station Type Date Time Source
LDRI Decoded METAR 2021/05/10 00:30 UTC NOAA

Rijeka / Omisalj, Croatia (LDRI) 45-13N 014-35E
May 09, 2021 - 08:30 PM EDT / 2021.05.10 0030 UTC
Wind: Calm:0
Visibility: greater than 7 mile(s):0
Temperature: 53 F (12 C)
Dew Point: 46 F (8 C)
Relative Humidity: 76%
Pressure (altimeter): 30.06 in. Hg (1018 hPa)
ob: LDRI 100030Z 00000KT CAVOK 12/08 Q1018
cycle: 0

Station Type Date Time Source
LDRI TAF 2021/05/09 18:29 UTC NOAA

TAF LDRI 091725Z 0918/1018 VRB02KT CAVOK TX24/1014Z TN13/1004Z

Example: see airport list